Gaya Airport

Current Flights

Departures
Number Departure To Airline
 AI433 14:45 +372  Varanasi  Air India
 AI236 16:10 +287  Delhi  Air India
 AI433 14:45  Varanasi  Air India
 AI433 14:45  Varanasi  Air India
Arrivals
Number Arrival From Airline
 AI235 10:35 +5  Delhi  Air India
 AI236 13:55 +422  Yangon  Air India
 AI433 14:10 +6  Delhi  Air India
 AI433 14:10  Delhi  Air India
Info
Name: Gaya Airport
Identifier:  GAY/VEGY
Local Time:  22. May 20:56
City
Flights per Day
1 flights
Distance: 556km (346mi)
Punctuality
70% (0 flights per day delayed)
Delay Average: 26 minutes
Current Weather
 37 C (Humidity: 30%)
  3kt (5km/h / 3mph) from 340°
  3km (2 mi.)
 METAR VEGY 221400Z 34003KT 3500 HZ NSC 37/17 Q1001

Current Delays

Departures
N/A
Arrivals
N/A

Destinations

Top Destinations
Airport Flights
per week
Seats
per week
  Delhi (DEL) 7 1,379 1 197
  Varanasi (VNS) 7 1,050 1 150
  Yangon (RGN) <1 427 0 61
  Kolkata (CCU) <1 133 0 19

Airlines & Planes

Top Airlines
Airline Flights
per Day
Seats
per Day
  Air India 2 427
Top Plane Types
Manufacturer Model Flights Seats
Airbus A319 1.6/day 206/day 206.26666666666668
Airbus A320 1.3/day 210/day 210.66666666666666
Airbus A320 Neo 0.1/day 10/day 10.8